createdAt,value
2023-02-16T00:00:49.965Z,2.20
2023-02-16T00:03:37.075Z,2.35
2023-02-16T00:06:04.758Z,2.37
2023-02-16T00:08:32.340Z,2.32
2023-02-16T00:11:18.197Z,2.30
2023-02-16T00:13:45.550Z,2.33
2023-02-16T00:16:25.296Z,2.41
2023-02-16T00:18:53.595Z,2.17
2023-02-16T00:21:21.770Z,2.18
2023-02-16T00:23:49.574Z,2.19
2023-02-16T00:26:24.887Z,2.14
2023-02-16T00:28:58.495Z,2.23
2023-02-16T00:31:31.981Z,2.20
2023-02-16T00:34:05.152Z,2.19
2023-02-16T00:36:32.682Z,2.18
2023-02-16T00:38:59.943Z,2.19
2023-02-16T00:41:46.202Z,2.14
2023-02-16T00:44:24.064Z,2.29
2023-02-16T00:46:51.807Z,2.17
2023-02-16T00:49:22.181Z,2.16
2023-02-16T00:51:50.548Z,2.05
2023-02-16T00:54:17.973Z,2.20
2023-02-16T00:56:46.938Z,2.10
2023-02-16T00:59:21.002Z,2.13
2023-02-16T01:01:49.878Z,2.20
2023-02-16T01:04:24.052Z,2.13
2023-02-16T01:07:10.400Z,2.15
2023-02-16T01:09:56.095Z,2.10
2023-02-16T01:12:23.787Z,2.02
2023-02-16T01:14:55.457Z,2.07
2023-02-16T01:17:25.331Z,2.12
2023-02-16T01:19:52.659Z,2.16
2023-02-16T01:22:20.160Z,2.06
2023-02-16T01:24:47.462Z,1.95
2023-02-16T01:27:15.050Z,2.01
2023-02-16T01:29:42.448Z,1.98
2023-02-16T01:32:13.015Z,1.92
2023-02-16T01:34:40.460Z,1.99
2023-02-16T01:37:16.679Z,2.01
2023-02-16T01:39:44.118Z,2.18
2023-02-16T01:42:26.769Z,2.21
2023-02-16T01:45:03.349Z,1.99
2023-02-16T01:47:40.944Z,1.97
2023-02-16T01:50:23.303Z,2.01
2023-02-16T01:53:01.852Z,2.05
2023-02-16T01:55:42.871Z,1.98
2023-02-16T01:58:25.101Z,1.96
2023-02-16T02:00:52.302Z,1.98
2023-02-16T02:03:53.098Z,1.94
2023-02-16T02:06:34.711Z,1.92
2023-02-16T02:09:36.810Z,1.91
2023-02-16T02:12:23.891Z,1.95
2023-02-16T02:14:51.792Z,1.88
2023-02-16T02:17:21.585Z,1.92
2023-02-16T02:20:55.739Z,1.91
2023-02-16T02:24:03.779Z,1.86
2023-02-16T02:26:49.713Z,1.86
2023-02-16T02:30:12.826Z,1.86
2023-02-16T02:33:02.975Z,1.83
2023-02-16T02:36:19.992Z,1.84
2023-02-16T02:38:58.873Z,1.86
2023-02-16T02:42:05.909Z,1.87
2023-02-16T02:44:50.361Z,1.92
2023-02-16T02:47:17.787Z,1.83
2023-02-16T02:49:54.680Z,1.88
2023-02-16T02:52:23.663Z,1.86
2023-02-16T02:55:09.723Z,1.88
2023-02-16T02:58:03.547Z,1.86
2023-02-16T03:00:41.630Z,1.85
2023-02-16T03:03:19.413Z,1.89
2023-02-16T03:05:54.686Z,1.89
2023-02-16T03:08:27.010Z,1.90
2023-02-16T03:11:29.957Z,1.82
2023-02-16T03:14:21.153Z,1.85
2023-02-16T03:17:17.709Z,1.86
2023-02-16T03:20:08.419Z,1.85
2023-02-16T03:22:56.400Z,1.95
2023-02-16T03:25:48.327Z,1.96
2023-02-16T03:28:41.203Z,1.81
2023-02-16T03:31:14.751Z,2.02
2023-02-16T03:33:43.229Z,1.95
2023-02-16T03:36:11.801Z,1.82
2023-02-16T03:38:39.849Z,1.94
2023-02-16T03:41:07.164Z,1.87
2023-02-16T03:43:34.929Z,1.88
2023-02-16T03:46:02.292Z,2.01
2023-02-16T03:48:29.905Z,1.92
2023-02-16T03:50:57.245Z,1.92
2023-02-16T03:53:24.910Z,2.07
2023-02-16T03:55:52.395Z,1.91
2023-02-16T03:58:24.611Z,2.05
2023-02-16T04:00:52.708Z,2.17
2023-02-16T04:03:20.638Z,2.01
2023-02-16T04:05:48.222Z,2.00
2023-02-16T04:08:16.310Z,2.03
2023-02-16T04:10:45.171Z,1.94
2023-02-16T04:13:12.881Z,1.99
2023-02-16T04:15:41.528Z,2.09
2023-02-16T04:18:09.697Z,1.96
2023-02-16T04:20:37.051Z,2.01
2023-02-16T04:23:05.277Z,2.04
2023-02-16T04:25:32.800Z,1.91
2023-02-16T04:28:00.955Z,1.85
2023-02-16T04:30:32.281Z,1.87
2023-02-16T04:33:00.108Z,1.80
2023-02-16T04:35:27.597Z,1.83
2023-02-16T04:37:55.319Z,1.80
2023-02-16T04:40:22.621Z,1.68
2023-02-16T04:42:50.554Z,1.73
2023-02-16T04:45:18.043Z,1.79
2023-02-16T04:47:45.639Z,1.74
2023-02-16T04:50:13.539Z,1.71
2023-02-16T04:52:41.589Z,1.64
2023-02-16T04:55:11.148Z,1.64
2023-02-16T04:57:40.119Z,1.60
2023-02-16T05:00:11.904Z,1.67
2023-02-16T05:02:39.591Z,1.66
2023-02-16T05:05:07.749Z,1.69
2023-02-16T05:07:36.304Z,1.56
2023-02-16T05:10:04.193Z,1.61
2023-02-16T05:12:50.635Z,1.61
2023-02-16T05:15:18.011Z,1.58
2023-02-16T05:17:45.704Z,1.62
2023-02-16T05:20:13.769Z,1.60
2023-02-16T05:22:41.382Z,1.72
2023-02-16T05:25:08.665Z,1.64
2023-02-16T05:27:36.403Z,1.61
2023-02-16T05:30:04.328Z,1.60
2023-02-16T05:32:32.122Z,1.64
2023-02-16T05:34:59.426Z,1.63
2023-02-16T05:37:27.119Z,1.63
2023-02-16T05:39:54.721Z,1.60
2023-02-16T05:42:22.340Z,1.60
2023-02-16T05:44:49.676Z,1.65
2023-02-16T05:47:17.240Z,1.60
2023-02-16T05:49:44.433Z,1.69
2023-02-16T05:52:11.991Z,1.74
2023-02-16T05:54:39.396Z,1.73
2023-02-16T05:57:07.248Z,1.73
2023-02-16T05:59:34.526Z,1.85
2023-02-16T06:02:02.108Z,1.91
2023-02-16T06:04:29.467Z,1.83
2023-02-16T06:06:57.032Z,1.88
2023-02-16T06:09:24.532Z,1.92
2023-02-16T06:11:52.149Z,1.98
2023-02-16T06:14:21.519Z,1.96
2023-02-16T06:16:51.790Z,2.05
2023-02-16T06:19:20.710Z,2.09
2023-02-16T06:21:49.174Z,2.23
2023-02-16T06:24:16.600Z,2.21
2023-02-16T06:26:44.458Z,2.36
2023-02-16T06:29:11.850Z,2.25
2023-02-16T06:31:39.537Z,2.31
2023-02-16T06:34:07.200Z,2.20
2023-02-16T06:36:35.445Z,2.34
2023-02-16T06:39:03.460Z,2.39
2023-02-16T06:41:38.023Z,2.50
2023-02-16T06:44:15.398Z,2.53
2023-02-16T06:46:45.946Z,2.58
2023-02-16T06:49:18.273Z,2.64
2023-02-16T06:51:47.001Z,3.00
2023-02-16T06:54:14.779Z,2.94
2023-02-16T06:56:42.547Z,2.99
2023-02-16T06:59:11.676Z,2.99
2023-02-16T07:01:39.225Z,3.10
2023-02-16T07:04:06.633Z,3.09
2023-02-16T07:06:34.369Z,3.16
2023-02-16T07:09:01.845Z,3.28
2023-02-16T07:11:29.482Z,3.33
2023-02-16T07:13:56.786Z,3.59
2023-02-16T07:16:24.626Z,3.66
2023-02-16T07:18:52.055Z,3.94
2023-02-16T07:21:19.799Z,4.03
2023-02-16T07:23:47.472Z,4.34
2023-02-16T07:26:15.220Z,4.32
2023-02-16T07:28:42.540Z,4.42
2023-02-16T07:31:14.113Z,4.59
2023-02-16T07:33:41.626Z,4.72
2023-02-16T07:36:14.715Z,4.81
2023-02-16T07:38:42.119Z,5.02
2023-02-16T07:41:11.301Z,5.21
2023-02-16T07:43:39.508Z,5.41
2023-02-16T07:46:07.249Z,5.75
2023-02-16T07:48:35.095Z,5.96
2023-02-16T07:51:03.105Z,6.14
2023-02-16T07:53:30.821Z,6.51
2023-02-16T07:55:58.402Z,6.29
2023-02-16T07:58:29.082Z,6.52
2023-02-16T08:01:08.572Z,6.95
2023-02-16T08:03:35.892Z,7.25
2023-02-16T08:06:05.180Z,7.25
2023-02-16T08:08:33.299Z,7.38
2023-02-16T08:11:01.159Z,7.35
2023-02-16T08:13:28.557Z,7.89
2023-02-16T08:15:56.140Z,8.69
2023-02-16T08:18:23.422Z,9.15
2023-02-16T08:21:03.268Z,10.14
2023-02-16T08:23:31.676Z,11.15
2023-02-16T08:25:59.636Z,12.39
2023-02-16T08:28:28.833Z,13.03
2023-02-16T08:30:57.135Z,12.63
2023-02-16T08:33:25.212Z,13.42
2023-02-16T08:35:53.288Z,14.22
2023-02-16T08:38:20.995Z,15.85
2023-02-16T08:40:50.401Z,16.55
2023-02-16T08:43:17.807Z,17.89
2023-02-16T08:45:50.032Z,18.43
2023-02-16T08:48:17.986Z,18.84
2023-02-16T08:50:53.622Z,18.61
2023-02-16T08:53:23.429Z,20.38
2023-02-16T08:55:59.721Z,20.07
2023-02-16T08:58:27.610Z,20.44
2023-02-16T09:00:55.366Z,21.41
2023-02-16T09:03:23.525Z,21.63
2023-02-16T09:05:53.466Z,20.48
2023-02-16T09:08:21.883Z,20.86
2023-02-16T09:10:49.573Z,21.17
2023-02-16T09:13:16.999Z,20.23
2023-02-16T09:15:45.340Z,20.56
2023-02-16T09:18:14.194Z,20.85
2023-02-16T09:20:46.775Z,20.79
2023-02-16T09:23:14.432Z,20.33
2023-02-16T09:25:42.201Z,21.11
2023-02-16T09:28:11.520Z,22.16
2023-02-16T09:30:40.008Z,22.97
2023-02-16T09:33:07.920Z,22.69
2023-02-16T09:35:39.158Z,22.00
2023-02-16T09:38:08.094Z,22.43
2023-02-16T09:40:38.385Z,23.33
2023-02-16T09:43:19.100Z,24.62
2023-02-16T09:45:52.157Z,25.24
2023-02-16T09:48:45.668Z,25.35
2023-02-16T09:51:46.296Z,25.74
2023-02-16T09:54:40.926Z,26.30
2023-02-16T09:57:31.730Z,25.94
2023-02-16T10:00:33.169Z,26.61
2023-02-16T10:03:21.391Z,27.47
2023-02-16T10:06:23.239Z,27.24
2023-02-16T10:09:07.550Z,27.20
2023-02-16T10:11:48.894Z,25.95
2023-02-16T10:14:41.726Z,26.47
2023-02-16T10:17:45.446Z,26.76
2023-02-16T10:20:27.061Z,26.75
2023-02-16T10:23:31.767Z,27.80
2023-02-16T10:26:35.325Z,28.63
2023-02-16T10:29:24.108Z,26.96
2023-02-16T10:32:08.487Z,27.98
2023-02-16T10:34:47.568Z,27.87
2023-02-16T10:37:37.867Z,27.55
2023-02-16T10:40:47.182Z,27.37
2023-02-16T10:43:35.381Z,28.22
2023-02-16T10:46:06.089Z,29.19
2023-02-16T10:48:34.232Z,28.60
2023-02-16T10:51:19.106Z,29.16
2023-02-16T10:53:53.030Z,27.68
2023-02-16T10:56:57.268Z,28.31
2023-02-16T10:59:42.206Z,30.09
2023-02-16T11:02:29.504Z,29.41
2023-02-16T11:04:59.585Z,28.98
2023-02-16T11:07:30.416Z,29.79
2023-02-16T11:10:04.265Z,29.90
2023-02-16T11:12:39.930Z,30.81
2023-02-16T11:15:24.936Z,30.18
2023-02-16T11:18:20.703Z,30.37
2023-02-16T11:20:48.214Z,29.94
2023-02-16T11:23:24.834Z,29.50
2023-02-16T11:26:07.232Z,29.37
2023-02-16T11:28:42.982Z,27.72
2023-02-16T11:31:22.826Z,28.87
2023-02-16T11:34:07.705Z,28.35
2023-02-16T11:36:42.919Z,28.93
2023-02-16T11:39:31.033Z,30.24
2023-02-16T11:42:04.162Z,30.28
2023-02-16T11:44:44.587Z,30.67
2023-02-16T11:47:25.722Z,31.38
2023-02-16T11:50:21.623Z,32.69
2023-02-16T11:52:56.470Z,33.93
2023-02-16T11:55:33.389Z,33.36
2023-02-16T11:58:26.471Z,32.60
2023-02-16T12:01:23.915Z,31.74
2023-02-16T12:04:11.598Z,32.29
2023-02-16T12:07:15.700Z,31.63
2023-02-16T12:10:13.388Z,30.38
2023-02-16T12:12:46.014Z,30.62
2023-02-16T12:15:31.830Z,29.61
2023-02-16T12:18:31.492Z,27.99
2023-02-16T12:21:18.272Z,30.41
2023-02-16T12:24:14.764Z,28.65
2023-02-16T12:26:45.312Z,29.90
2023-02-16T12:29:45.160Z,30.16
2023-02-16T12:33:08.201Z,29.97
2023-02-16T12:36:02.350Z,28.68
2023-02-16T12:39:03.538Z,27.59
2023-02-16T12:42:14.517Z,29.50
2023-02-16T12:44:53.942Z,27.72
2023-02-16T12:47:32.913Z,28.75
2023-02-16T12:50:08.259Z,27.57
2023-02-16T12:53:18.820Z,27.30
2023-02-16T12:56:03.886Z,26.69
2023-02-16T12:58:39.578Z,25.82
2023-02-16T13:01:33.625Z,25.80
2023-02-16T13:04:21.148Z,25.56
2023-02-16T13:07:09.567Z,24.73
2023-02-16T13:09:53.501Z,23.63
2023-02-16T13:12:43.300Z,23.32
2023-02-16T13:15:34.504Z,22.93
2023-02-16T13:18:20.492Z,23.60
2023-02-16T13:21:08.299Z,23.77
2023-02-16T13:24:00.144Z,24.64
2023-02-16T13:27:13.950Z,24.38
2023-02-16T13:30:10.558Z,24.80
2023-02-16T13:33:14.350Z,25.50
2023-02-16T13:35:55.418Z,24.77
2023-02-16T13:38:49.229Z,24.60
2023-02-16T13:41:35.496Z,24.37
2023-02-16T13:44:13.708Z,23.99
2023-02-16T13:46:54.658Z,23.49
2023-02-16T13:49:58.884Z,21.76
2023-02-16T13:52:34.564Z,20.55
2023-02-16T13:55:08.378Z,20.39
2023-02-16T13:57:52.088Z,20.32
2023-02-16T14:00:34.159Z,20.28
2023-02-16T14:03:21.181Z,19.59
2023-02-16T14:05:55.654Z,18.79
2023-02-16T14:08:32.593Z,17.65
2023-02-16T14:11:08.463Z,16.55
2023-02-16T14:13:38.818Z,16.50
2023-02-16T14:16:17.869Z,15.85
2023-02-16T14:18:53.969Z,15.11
2023-02-16T14:21:44.178Z,14.84
2023-02-16T14:24:34.047Z,14.19
2023-02-16T14:27:10.756Z,14.28
2023-02-16T14:30:01.675Z,13.65
2023-02-16T14:32:38.669Z,13.19
2023-02-16T14:35:27.201Z,13.04
2023-02-16T14:38:05.834Z,12.97
2023-02-16T14:40:36.503Z,12.70
2023-02-16T14:43:17.813Z,12.39
2023-02-16T14:46:26.191Z,12.32
2023-02-16T14:49:25.998Z,12.07
2023-02-16T14:52:44.057Z,11.91
2023-02-16T14:55:45.036Z,12.23
2023-02-16T14:58:39.731Z,12.23
2023-02-16T15:01:17.965Z,12.27
2023-02-16T15:03:55.489Z,12.32
2023-02-16T15:06:42.249Z,11.85
2023-02-16T15:09:25.850Z,11.30
2023-02-16T15:12:16.577Z,11.16
2023-02-16T15:14:54.808Z,11.18
2023-02-16T15:17:39.173Z,10.91
2023-02-16T15:20:21.692Z,11.05
2023-02-16T15:23:02.756Z,11.26
2023-02-16T15:25:43.523Z,11.97
2023-02-16T15:28:22.656Z,13.07
2023-02-16T15:31:24.091Z,13.70
2023-02-16T15:34:09.609Z,13.16
2023-02-16T15:36:44.586Z,12.42
2023-02-16T15:39:45.109Z,11.75
2023-02-16T15:42:28.408Z,11.24
2023-02-16T15:44:57.180Z,10.71
2023-02-16T15:47:27.374Z,10.25
2023-02-16T15:49:55.233Z,9.93
2023-02-16T15:52:35.933Z,9.60
2023-02-16T15:55:09.299Z,9.43
2023-02-16T15:57:40.146Z,9.25
2023-02-16T16:00:21.988Z,9.07
2023-02-16T16:02:59.309Z,8.71
2023-02-16T16:05:30.411Z,8.75
2023-02-16T16:08:00.473Z,8.48
2023-02-16T16:10:33.746Z,8.28
2023-02-16T16:13:15.666Z,7.99
2023-02-16T16:15:48.797Z,7.76
2023-02-16T16:18:50.421Z,7.55
2023-02-16T16:21:24.293Z,7.28
2023-02-16T16:24:02.202Z,7.19
2023-02-16T16:26:36.192Z,6.98
2023-02-16T16:29:04.621Z,7.02
2023-02-16T16:31:41.185Z,6.94
2023-02-16T16:34:31.220Z,6.87
2023-02-16T16:37:02.788Z,6.71
2023-02-16T16:39:35.627Z,6.54
2023-02-16T16:42:16.388Z,6.51
2023-02-16T16:44:59.516Z,6.45
2023-02-16T16:47:40.479Z,6.37
2023-02-16T16:50:32.673Z,6.44
2023-02-16T16:53:01.984Z,6.35
2023-02-16T16:55:34.648Z,6.33
2023-02-16T16:58:08.602Z,6.30
2023-02-16T17:00:42.335Z,6.25
2023-02-16T17:03:16.593Z,6.11
2023-02-16T17:05:46.202Z,6.02
2023-02-16T17:08:13.503Z,5.94
2023-02-16T17:10:42.330Z,5.96
2023-02-16T17:13:20.117Z,5.74
2023-02-16T17:16:06.973Z,5.85
2023-02-16T17:18:34.614Z,5.69
2023-02-16T17:21:02.376Z,5.75
2023-02-16T17:23:29.764Z,5.62
2023-02-16T17:25:57.751Z,5.51
2023-02-16T17:28:25.161Z,5.36
2023-02-16T17:30:52.789Z,5.21
2023-02-16T17:33:20.335Z,5.19
2023-02-16T17:35:48.041Z,5.23
2023-02-16T17:38:22.047Z,5.15
2023-02-16T17:40:53.067Z,5.26
2023-02-16T17:43:22.798Z,5.05
2023-02-16T17:45:52.480Z,5.05
2023-02-16T17:48:23.521Z,4.97
2023-02-16T17:50:51.992Z,4.91
2023-02-16T17:53:22.905Z,4.94
2023-02-16T17:55:54.732Z,4.87
2023-02-16T17:58:25.252Z,4.83
2023-02-16T18:00:53.551Z,4.69
2023-02-16T18:03:23.064Z,4.69
2023-02-16T18:05:51.619Z,4.57
2023-02-16T18:08:19.074Z,4.59
2023-02-16T18:10:52.030Z,4.50
2023-02-16T18:13:20.527Z,4.51
2023-02-16T18:15:50.406Z,4.44
2023-02-16T18:18:20.867Z,4.50
2023-02-16T18:20:48.595Z,4.47
2023-02-16T18:23:17.329Z,4.43
2023-02-16T18:25:45.810Z,4.41
2023-02-16T18:28:20.529Z,4.36
2023-02-16T18:30:50.632Z,4.28
2023-02-16T18:33:23.237Z,4.30
2023-02-16T18:35:58.058Z,4.30
2023-02-16T18:38:25.928Z,4.24
2023-02-16T18:40:55.132Z,4.28
2023-02-16T18:43:23.492Z,4.09
2023-02-16T18:45:51.242Z,4.02
2023-02-16T18:48:18.736Z,3.98
2023-02-16T18:50:46.436Z,3.96
2023-02-16T18:53:13.967Z,3.91
2023-02-16T18:55:41.682Z,3.93
2023-02-16T18:58:12.998Z,3.91
2023-02-16T19:00:40.993Z,3.87
2023-02-16T19:03:09.183Z,3.96
2023-02-16T19:05:37.457Z,3.96
2023-02-16T19:08:05.205Z,3.85
2023-02-16T19:10:33.793Z,3.85
2023-02-16T19:13:02.234Z,3.81
2023-02-16T19:15:30.263Z,3.84
2023-02-16T19:17:57.798Z,3.78
2023-02-16T19:20:25.907Z,3.81
2023-02-16T19:22:53.408Z,3.74
2023-02-16T19:25:21.860Z,3.78
2023-02-16T19:27:49.307Z,3.79
2023-02-16T19:30:17.158Z,3.78
2023-02-16T19:32:44.638Z,3.80
2023-02-16T19:35:12.922Z,3.78
2023-02-16T19:37:40.432Z,3.70
2023-02-16T19:40:10.771Z,3.61
2023-02-16T19:42:39.221Z,3.60
2023-02-16T19:45:08.489Z,3.56
2023-02-16T19:47:36.356Z,3.56
2023-02-16T19:50:04.986Z,3.52
2023-02-16T19:52:32.575Z,3.58
2023-02-16T19:55:00.256Z,3.48
2023-02-16T19:57:27.754Z,3.51
2023-02-16T19:59:55.432Z,3.46
2023-02-16T20:02:22.801Z,3.47
2023-02-16T20:04:50.786Z,3.49
2023-02-16T20:07:18.202Z,3.41
2023-02-16T20:09:45.855Z,3.34
2023-02-16T20:12:13.942Z,3.37
2023-02-16T20:14:41.645Z,3.36
2023-02-16T20:17:09.052Z,3.34
2023-02-16T20:19:36.729Z,3.28
2023-02-16T20:22:04.104Z,3.34
2023-02-16T20:24:31.741Z,3.29
2023-02-16T20:27:04.037Z,3.28
2023-02-16T20:29:32.600Z,3.21
2023-02-16T20:32:00.502Z,3.26
2023-02-16T20:34:28.366Z,3.20
2023-02-16T20:36:55.787Z,3.10
2023-02-16T20:39:24.084Z,3.12
2023-02-16T20:41:51.413Z,3.16
2023-02-16T20:44:19.326Z,3.27
2023-02-16T20:46:46.685Z,3.10
2023-02-16T20:49:16.469Z,3.11
2023-02-16T20:51:44.293Z,3.08
2023-02-16T20:54:12.940Z,3.00
2023-02-16T20:56:40.788Z,3.01
2023-02-16T20:59:08.672Z,3.00
2023-02-16T21:01:43.563Z,2.94
2023-02-16T21:04:11.452Z,3.03
2023-02-16T21:06:39.519Z,2.98
2023-02-16T21:09:09.646Z,2.98
2023-02-16T21:11:39.149Z,3.00
2023-02-16T21:14:08.617Z,2.94
2023-02-16T21:16:37.021Z,2.98
2023-02-16T21:19:09.287Z,2.94
2023-02-16T21:21:45.612Z,2.91
2023-02-16T21:24:13.018Z,2.89
2023-02-16T21:26:40.650Z,2.94
2023-02-16T21:29:07.952Z,2.95
2023-02-16T21:31:35.681Z,2.92
2023-02-16T21:34:03.087Z,2.89
2023-02-16T21:36:30.796Z,2.87
2023-02-16T21:38:58.120Z,2.84
2023-02-16T21:41:29.353Z,2.83
2023-02-16T21:44:06.212Z,2.82
2023-02-16T21:46:43.099Z,2.91
2023-02-16T21:49:18.331Z,2.92
2023-02-16T21:51:48.194Z,2.84
2023-02-16T21:54:38.975Z,2.84
2023-02-16T21:57:06.633Z,2.90
2023-02-16T21:59:34.427Z,2.83
2023-02-16T22:02:02.101Z,2.76
2023-02-16T22:04:29.458Z,2.78
2023-02-16T22:06:57.161Z,2.73
2023-02-16T22:09:24.552Z,2.76
2023-02-16T22:11:52.414Z,2.67
2023-02-16T22:14:19.944Z,2.64
2023-02-16T22:16:48.741Z,2.69
2023-02-16T22:19:18.464Z,2.71
2023-02-16T22:21:48.691Z,2.78
2023-02-16T22:24:19.464Z,2.89
2023-02-16T22:26:49.861Z,2.85
2023-02-16T22:29:18.823Z,2.85
2023-02-16T22:31:49.789Z,2.87
2023-02-16T22:34:22.007Z,2.89
2023-02-16T22:36:50.197Z,2.92
2023-02-16T22:39:19.005Z,2.93
2023-02-16T22:41:49.256Z,2.92
2023-02-16T22:44:16.775Z,2.97
2023-02-16T22:46:44.465Z,2.87
2023-02-16T22:49:11.924Z,2.93
2023-02-16T22:51:39.662Z,2.94
2023-02-16T22:54:08.048Z,2.93
2023-02-16T22:56:35.852Z,3.02
2023-02-16T22:59:03.165Z,2.99
2023-02-16T23:01:31.516Z,3.18
2023-02-16T23:04:01.328Z,3.31
2023-02-16T23:06:35.842Z,3.36
2023-02-16T23:09:09.137Z,3.32
2023-02-16T23:11:36.844Z,3.25
2023-02-16T23:14:05.774Z,3.13
2023-02-16T23:16:33.525Z,3.27
2023-02-16T23:19:00.955Z,3.17
2023-02-16T23:21:31.376Z,3.15
2023-02-16T23:24:00.305Z,3.09
2023-02-16T23:26:30.757Z,3.16
2023-02-16T23:29:02.220Z,3.17
2023-02-16T23:31:36.071Z,3.12
2023-02-16T23:34:05.271Z,3.08
2023-02-16T23:36:35.381Z,3.08
2023-02-16T23:39:06.546Z,3.12
2023-02-16T23:41:34.558Z,3.02
2023-02-16T23:44:01.868Z,3.03
2023-02-16T23:46:29.707Z,2.96
2023-02-16T23:48:57.131Z,2.99
2023-02-16T23:51:25.067Z,2.98
2023-02-16T23:53:52.457Z,3.01
2023-02-16T23:56:25.180Z,2.96
2023-02-16T23:58:56.013Z,3.04
